createdAt,value
2022-12-15T00:04:32.201Z,0.00
2022-12-15T00:09:32.285Z,0.00
2022-12-15T00:14:32.212Z,0.00
2022-12-15T00:19:32.075Z,0.00
2022-12-15T00:24:33.013Z,0.00
2022-12-15T00:29:31.989Z,0.00
2022-12-15T00:34:31.918Z,0.00
2022-12-15T00:39:31.813Z,0.00
2022-12-15T00:44:31.785Z,0.00
2022-12-15T00:49:31.722Z,0.00
2022-12-15T00:54:31.642Z,0.00
2022-12-15T00:59:31.544Z,0.00
2022-12-15T01:04:31.591Z,0.00
2022-12-15T01:09:31.501Z,0.00
2022-12-15T01:14:31.530Z,0.00
2022-12-15T01:19:31.283Z,0.00
2022-12-15T01:24:31.347Z,0.00
2022-12-15T01:29:31.188Z,0.00
2022-12-15T01:34:31.108Z,0.00
2022-12-15T01:39:31.045Z,0.00
2022-12-15T01:44:31.133Z,0.00
2022-12-15T01:49:31.824Z,0.00
2022-12-15T01:54:30.880Z,0.00
2022-12-15T01:59:30.905Z,0.00
2022-12-15T02:04:30.725Z,0.00
2022-12-15T02:09:30.671Z,0.00
2022-12-15T02:14:30.744Z,0.00
2022-12-15T02:19:30.635Z,0.00
2022-12-15T02:24:30.487Z,0.00
2022-12-15T02:29:30.578Z,0.00
2022-12-15T02:34:30.376Z,0.00
2022-12-15T02:39:30.273Z,0.00
2022-12-15T02:44:30.227Z,0.00
2022-12-15T02:49:30.193Z,0.00
2022-12-15T02:54:30.143Z,0.00
2022-12-15T02:59:30.025Z,0.00
2022-12-15T03:04:30.005Z,0.00
2022-12-15T03:09:29.921Z,0.00
2022-12-15T03:14:29.848Z,0.00
2022-12-15T03:19:29.819Z,0.00
2022-12-15T03:24:29.698Z,0.00
2022-12-15T03:29:29.644Z,0.00
2022-12-15T03:34:29.604Z,0.00
2022-12-15T03:39:29.534Z,0.00
2022-12-15T03:44:29.505Z,0.00
2022-12-15T03:49:29.429Z,0.00
2022-12-15T03:54:29.371Z,0.00
2022-12-15T03:59:29.322Z,0.00
2022-12-15T04:04:29.206Z,0.00
2022-12-15T04:09:29.140Z,0.00
2022-12-15T04:14:29.081Z,0.00
2022-12-15T04:19:29.086Z,0.00
2022-12-15T04:24:28.994Z,0.00
2022-12-15T04:29:28.900Z,0.00
2022-12-15T04:34:28.892Z,0.00
2022-12-15T04:39:28.786Z,0.00
2022-12-15T04:44:28.723Z,0.00
2022-12-15T04:49:28.682Z,0.00
2022-12-15T04:54:28.628Z,0.00
2022-12-15T04:59:28.575Z,0.00
2022-12-15T05:04:28.545Z,0.00
2022-12-15T05:09:28.465Z,0.00
2022-12-15T05:14:28.309Z,0.00
2022-12-15T05:19:28.266Z,0.00
2022-12-15T05:24:28.191Z,0.00
2022-12-15T05:29:28.167Z,0.00
2022-12-15T05:34:28.078Z,0.00
2022-12-15T05:39:28.041Z,0.00
2022-12-15T05:44:28.034Z,0.00
2022-12-15T05:49:27.957Z,0.00
2022-12-15T05:54:27.842Z,0.00
2022-12-15T05:59:27.779Z,0.00
2022-12-15T06:04:27.760Z,0.00
2022-12-15T06:09:27.666Z,0.00
2022-12-15T06:14:27.605Z,0.00
2022-12-15T06:19:27.498Z,0.00
2022-12-15T06:24:27.531Z,0.00
2022-12-15T06:29:27.447Z,0.00
2022-12-15T06:34:27.356Z,0.00
2022-12-15T06:39:27.266Z,0.00
2022-12-15T06:44:27.269Z,5.62
2022-12-15T06:49:27.152Z,11.25
2022-12-15T06:54:27.118Z,16.88
2022-12-15T06:59:27.049Z,28.12
2022-12-15T07:04:27.103Z,33.75
2022-12-15T07:09:26.903Z,50.62
2022-12-15T07:14:26.823Z,61.88
2022-12-15T07:19:26.864Z,73.12
2022-12-15T07:24:26.715Z,84.38
2022-12-15T07:29:26.646Z,106.88
2022-12-15T07:34:26.582Z,135.00
2022-12-15T07:39:26.632Z,151.88
2022-12-15T07:44:26.457Z,185.62
2022-12-15T07:49:26.423Z,241.88
2022-12-15T07:54:26.408Z,258.75
2022-12-15T07:59:26.279Z,573.75
2022-12-15T08:04:26.306Z,247.50
2022-12-15T08:09:26.172Z,247.50
2022-12-15T08:14:26.152Z,253.12
2022-12-15T08:19:26.070Z,247.50
2022-12-15T08:24:26.068Z,281.25
2022-12-15T08:29:50.627Z,388.12
2022-12-15T08:34:26.908Z,348.75
2022-12-15T08:39:25.766Z,275.62
2022-12-15T08:44:25.805Z,292.50
2022-12-15T08:49:25.758Z,365.62
2022-12-15T08:54:25.580Z,416.25
2022-12-15T08:59:25.535Z,410.62
2022-12-15T09:04:25.481Z,410.62
2022-12-15T09:09:25.422Z,416.25
2022-12-15T09:14:29.044Z,416.25
2022-12-15T09:19:25.289Z,427.50
2022-12-15T09:24:34.387Z,433.12
2022-12-15T09:29:26.230Z,354.38
2022-12-15T09:34:25.210Z,376.88
2022-12-15T09:39:25.006Z,354.38
2022-12-15T09:44:25.034Z,450.00
2022-12-15T09:49:24.909Z,331.88
2022-12-15T09:54:24.933Z,360.00
2022-12-15T09:59:24.735Z,365.62
2022-12-15T10:04:24.794Z,331.88
2022-12-15T10:09:24.645Z,410.62
2022-12-15T10:14:24.593Z,540.00
2022-12-15T10:19:24.494Z,545.62
2022-12-15T10:25:07.301Z,562.50
2022-12-15T10:29:25.410Z,551.25
2022-12-15T10:34:24.645Z,523.12
2022-12-15T10:39:24.338Z,478.12
2022-12-15T10:44:30.320Z,444.38
2022-12-15T10:49:25.201Z,433.12
2022-12-15T10:54:24.037Z,427.50
2022-12-15T10:59:23.997Z,427.50
2022-12-15T11:04:23.998Z,433.12
2022-12-15T11:09:23.889Z,427.50
2022-12-15T11:14:23.803Z,416.25
2022-12-15T11:19:23.758Z,399.38
2022-12-15T11:24:23.756Z,393.75
2022-12-15T11:29:23.651Z,388.12
2022-12-15T11:34:23.636Z,382.50
2022-12-15T11:39:23.523Z,376.88
2022-12-15T11:44:23.399Z,365.62
2022-12-15T11:49:23.382Z,371.25
2022-12-15T11:54:23.356Z,360.00
2022-12-15T11:59:23.232Z,360.00
2022-12-15T12:04:23.177Z,360.00
2022-12-15T12:09:23.127Z,326.25
2022-12-15T12:14:23.196Z,270.00
2022-12-15T12:19:23.045Z,253.12
2022-12-15T12:24:22.938Z,236.25
2022-12-15T12:29:22.810Z,247.50
2022-12-15T12:34:22.788Z,315.00
2022-12-15T12:39:22.737Z,275.62
2022-12-15T12:44:22.660Z,270.00
2022-12-15T12:49:26.458Z,230.62
2022-12-15T12:54:23.451Z,225.00
2022-12-15T12:59:22.473Z,258.75
2022-12-15T13:04:22.400Z,241.88
2022-12-15T13:09:22.387Z,236.25
2022-12-15T13:14:26.052Z,253.12
2022-12-15T13:19:22.194Z,247.50
2022-12-15T13:24:22.138Z,241.88
2022-12-15T13:29:22.080Z,230.62
2022-12-15T13:34:22.022Z,219.38
2022-12-15T13:39:21.971Z,208.12
2022-12-15T13:44:21.863Z,202.50
2022-12-15T13:49:21.792Z,185.62
2022-12-15T13:54:21.810Z,174.38
2022-12-15T13:59:21.681Z,163.12
2022-12-15T14:04:21.667Z,146.25
2022-12-15T14:09:21.553Z,135.00
2022-12-15T14:14:21.514Z,118.12
2022-12-15T14:19:21.529Z,101.25
2022-12-15T14:29:22.348Z,67.50
2022-12-15T14:34:21.232Z,56.25
2022-12-15T14:39:21.155Z,45.00
2022-12-15T14:44:31.505Z,33.75
2022-12-15T14:49:22.362Z,28.12
2022-12-15T14:54:20.969Z,22.50
2022-12-15T14:59:20.921Z,11.25
2022-12-15T15:03:14.310Z,84.38
2022-12-15T15:04:20.973Z,5.62
2022-12-15T15:09:20.839Z,5.62
2022-12-15T15:14:20.742Z,0.00
2022-12-15T15:19:20.695Z,0.00
2022-12-15T15:24:20.626Z,0.00
2022-12-15T15:29:20.880Z,0.00
2022-12-15T15:34:20.559Z,0.00
2022-12-15T15:39:20.410Z,0.00
2022-12-15T15:44:20.318Z,0.00
2022-12-15T15:49:20.373Z,0.00
2022-12-15T15:54:20.213Z,0.00
2022-12-15T15:59:20.205Z,0.00
2022-12-15T16:04:20.092Z,0.00
2022-12-15T16:09:20.019Z,0.00
2022-12-15T16:14:19.971Z,0.00
2022-12-15T16:19:19.872Z,0.00
2022-12-15T16:24:19.903Z,0.00
2022-12-15T16:29:19.770Z,0.00
2022-12-15T16:34:19.689Z,0.00
2022-12-15T16:39:19.631Z,0.00
2022-12-15T16:44:19.588Z,0.00
2022-12-15T16:49:19.991Z,0.00
2022-12-15T16:54:19.450Z,0.00
2022-12-15T16:59:35.956Z,0.00
2022-12-15T17:04:20.400Z,0.00
2022-12-15T17:09:19.265Z,0.00
2022-12-15T17:14:19.216Z,0.00
2022-12-15T17:19:21.278Z,0.00
2022-12-15T17:24:19.165Z,0.00
2022-12-15T17:29:19.038Z,0.00
2022-12-15T17:34:19.151Z,0.00
2022-12-15T17:39:18.866Z,0.00
2022-12-15T17:44:36.767Z,0.00
2022-12-15T17:49:19.870Z,0.00
2022-12-15T17:54:21.462Z,0.00
2022-12-15T17:59:18.647Z,0.00
2022-12-15T18:04:18.609Z,0.00
2022-12-15T18:09:18.544Z,0.00
2022-12-15T18:14:18.543Z,0.00
2022-12-15T18:19:18.503Z,0.00
2022-12-15T18:24:18.300Z,0.00
2022-12-15T18:29:18.387Z,0.00
2022-12-15T18:34:18.258Z,0.00
2022-12-15T18:39:18.314Z,0.00
2022-12-15T18:44:18.125Z,0.00
2022-12-15T18:49:17.991Z,0.00
2022-12-15T18:54:17.991Z,0.00
2022-12-15T18:59:18.052Z,0.00
2022-12-15T19:04:17.899Z,0.00
2022-12-15T19:09:17.776Z,0.00
2022-12-15T19:14:17.749Z,0.00
2022-12-15T19:19:17.616Z,0.00
2022-12-15T19:24:17.554Z,0.00
2022-12-15T19:29:17.531Z,0.00
2022-12-15T19:34:17.468Z,0.00
2022-12-15T19:39:17.440Z,0.00
2022-12-15T19:44:17.363Z,0.00
2022-12-15T19:49:17.267Z,0.00
2022-12-15T19:54:17.187Z,0.00
2022-12-15T19:59:17.174Z,0.00
2022-12-15T20:04:18.459Z,0.00
2022-12-15T20:09:16.977Z,0.00
2022-12-15T20:14:16.930Z,0.00
2022-12-15T20:19:16.916Z,0.00
2022-12-15T20:24:16.918Z,0.00
2022-12-15T20:29:17.163Z,0.00
2022-12-15T20:34:16.776Z,0.00
2022-12-15T20:39:16.563Z,0.00
2022-12-15T20:44:16.586Z,0.00
2022-12-15T20:49:16.518Z,0.00
2022-12-15T20:54:16.536Z,0.00
2022-12-15T20:59:16.384Z,0.00
2022-12-15T21:04:16.292Z,0.00
2022-12-15T21:09:17.038Z,0.00
2022-12-15T21:14:16.214Z,0.00
2022-12-15T21:19:20.753Z,0.00
2022-12-15T21:24:17.032Z,0.00
2022-12-15T21:29:15.947Z,0.00
2022-12-15T21:34:16.073Z,0.00
2022-12-15T21:39:15.815Z,0.00
2022-12-15T21:44:15.794Z,0.00
2022-12-15T21:49:15.791Z,0.00
2022-12-15T21:54:15.641Z,0.00
2022-12-15T21:59:15.687Z,0.00
2022-12-15T22:04:15.555Z,0.00
2022-12-15T22:09:15.495Z,0.00
2022-12-15T22:14:15.717Z,0.00
2022-12-15T22:19:15.358Z,0.00
2022-12-15T22:24:15.293Z,0.00
2022-12-15T22:29:15.225Z,0.00
2022-12-15T22:34:15.164Z,0.00
2022-12-15T22:39:15.235Z,0.00
2022-12-15T22:44:15.059Z,0.00
2022-12-15T22:49:14.989Z,0.00
2022-12-15T22:54:14.839Z,0.00
2022-12-15T22:59:14.797Z,0.00
2022-12-15T23:04:14.777Z,0.00
2022-12-15T23:09:14.728Z,0.00
2022-12-15T23:14:14.599Z,0.00
2022-12-15T23:19:14.658Z,0.00
2022-12-15T23:24:14.452Z,0.00
2022-12-15T23:29:14.490Z,0.00
2022-12-15T23:34:14.391Z,0.00
2022-12-15T23:39:14.265Z,0.00
2022-12-15T23:44:14.257Z,0.00
2022-12-15T23:49:14.169Z,0.00
2022-12-15T23:54:14.071Z,0.00
2022-12-15T23:59:14.015Z,0.00
